Millville, West Virginia
Current Conditions -  °F | °C
As of 10:53 PM on Thursday 18 Dec 2014 (Local Time) from KMRB Reporting Station
Overcast Overcast  
Wind Chill: 26°   Ceiling: 11000
Heat Index: 34°   Visibility: 10mi
Dew Point: 19°   Wind: 10mph
Humidity: 54%   Direction: 300°WNW
Pressure: 30.11"   Gusts: NA
Location:  39.29°N, 77.79°W
Report Text: KMRB 190353Z 30009KT 10SM FEW032 FEW070 OVC110 01/M07 A3011 RMK AO2 SLP203 T00111072
Loading
Personal Weather Stations






























Interactive Weather Map New forecast layout! Learn more

10-Day Weather Forecast

Advertisements
Track Severe Weather on mobile